| time (UTC) | temp F | wind direction | speed knots | gust knots | rain 1hr in | rain 24hr in | rain mn in | humidity % | barometer mb |
| 20260503185003 | 63 | 121 | 0.9 | 6.1 | 0.00 | 0.00 | 0.00 | 32 | 1018.0 |
| 20260503184500 | 63 | 84 | 0.9 | 3.5 | 0.00 | 0.00 | 0.00 | 33 | 1018.0 |
| 20260503184003 | 63 | 303 | 1.7 | 3.5 | 0.00 | 0.00 | 0.00 | 33 | 1018.0 |
| 20260503183506 | 63 | 14 | 1.7 | 3.5 | 0.00 | 0.00 | 0.00 | 33 | 1018.0 |
| 20260503183000 | 63 | 57 | 2.6 | 3.5 | 0.00 | 0.00 | 0.00 | 32 | 1018.0 |
| 20260503182506 | 62 | 5 | 0.0 | 2.6 | 0.00 | 0.00 | 0.00 | 34 | 1018.0 |
| 20260503182000 | 62 | 338 | 0.9 | 7.0 | 0.00 | 0.00 | 0.00 | 34 | 1018.2 |
| 20260503181506 | 61 | 317 | 0.9 | 4.3 | 0.00 | 0.00 | 0.00 | 36 | 1018.1 |
| 20260503181000 | 60 | 87 | 2.6 | 5.2 | 0.00 | 0.00 | 0.00 | 35 | 1018.3 |
| 20260503180503 | 61 | 282 | 4.3 | 7.0 | 0.00 | 0.00 | 0.00 | 35 | 1018.4 |
| 20260503180002 | 60 | 296 | 0.9 | 6.1 | 0.00 | 0.00 | 0.00 | 34 | 1018.3 |
| 20260503175500 | 60 | 88 | 0.9 | 6.1 | 0.00 | 0.00 | 0.00 | 34 | 1018.4 |
| 20260503175006 | 60 | 19 | 1.7 | 3.5 | 0.00 | 0.00 | 0.00 | 35 | 1018.5 |
| 20260503174500 | 60 | 288 | 0.0 | 4.3 | 0.00 | 0.00 | 0.00 | 35 | 1018.5 |
| 20260503174000 | 60 | 304 | 0.0 | 2.6 | 0.00 | 0.00 | 0.00 | 37 | 1018.6 |
| 20260503173506 | 59 | 5 | 0.0 | 2.6 | 0.00 | 0.00 | 0.00 | 36 | 1018.7 |
| 20260503172959 | 59 | 299 | 2.6 | 4.3 | 0.00 | 0.00 | 0.00 | 37 | 1018.7 |
| 20260503172500 | 59 | 10 | 0.9 | 2.6 | 0.00 | 0.00 | 0.00 | 36 | 1018.8 |
| 20260503172003 | 59 | 5 | 0.9 | 7.0 | 0.00 | 0.00 | 0.00 | 36 | 1018.8 |
| 20260503171500 | 59 | 283 | 6.1 | 6.1 | 0.00 | 0.00 | 0.00 | 37 | 1018.8 |
| 20260503171009 | 59 | 14 | 2.6 | 4.3 | 0.00 | 0.00 | 0.00 | 36 | 1018.8 |
| 20260503170505 | 59 | 24 | 0.9 | 4.3 | 0.00 | 0.00 | 0.00 | 37 | 1018.9 |
| 20260503150919 | 52 | 0 | 0.0 | 3.5 | 0.00 | 0.00 | 0.00 | 44 | 1019.8 |
| 20260503150422 | 52 | 5 | 0.0 | 6.1 | 0.00 | 0.00 | 0.00 | 43 | 1019.9 |
| 20260503131416 | 47 | 299 | 1.7 | 4.3 | 0.00 | 0.00 | 0.00 | 62 | 1019.5 |
| 20260503130916 | 46 | 19 | 0.9 | 4.3 | 0.00 | 0.00 | 0.00 | 65 | 1019.5 |
| 20260503130419 | 45 | 21 | 0.9 | 4.3 | 0.00 | 0.00 | 0.00 | 69 | 1019.6 |
| 20260503110416 | 37 | 11 | 0.0 | 0.0 | 0.00 | 0.00 | 0.00 | 85 | 1018.7 |
| 20260503090416 | 36 | 11 | 0.0 | 0.0 | 0.00 | 0.00 | 0.00 | 80 | 1018.0 |
| 20260503081422 | 38 | 11 | 0.0 | 0.0 | 0.00 | 0.00 | 0.00 | 80 | 1017.7 |
| 20260503080919 | 38 | 11 | 0.0 | 0.0 | 0.00 | 0.00 | 0.00 | 80 | 1017.6 |
| 20260503080416 | 38 | 11 | 0.0 | 0.0 | 0.00 | 0.00 | 0.00 | 79 | 1017.6 |
| 20260503072922 | 40 | 11 | 0.0 | 0.0 | 0.00 | 0.00 | 0.00 | 75 | 1017.5 |
| 20260503072416 | 40 | 11 | 0.0 | 0.0 | 0.00 | 0.00 | 0.00 | 75 | 1017.5 |
| 20260503071922 | 40 | 11 | 0.0 | 0.0 | 0.00 | 0.00 | 0.00 | 75 | 1017.5 |
| 20260503071419 | 40 | 11 | 0.0 | 0.0 | 0.00 | 0.00 | 0.00 | 75 | 1017.5 |
| 20260503070916 | 40 | 11 | 0.0 | 0.0 | 0.00 | 0.00 | 0.00 | 75 | 1017.5 |
| 20260503070416 | 41 | 11 | 0.0 | 0.0 | 0.00 | 0.00 | 0.00 | 74 | 1017.4 |
| 20260503054916 | 43 | 13 | 0.0 | 0.0 | 0.00 | 0.00 | 0.00 | 69 | 1017.3 |
| 20260503054419 | 43 | 13 | 0.0 | 0.9 | 0.00 | 0.00 | 0.00 | 69 | 1017.3 |
| 20260503053916 | 43 | 13 | 0.0 | 0.0 | 0.00 | 0.00 | 0.00 | 69 | 1017.4 |
| 20260503053416 | 43 | 13 | 0.0 | 0.9 | 0.00 | 0.00 | 0.00 | 68 | 1017.5 |
| 20260503052916 | 43 | 13 | 0.0 | 0.9 | 0.00 | 0.00 | 0.00 | 68 | 1017.5 |
| 20260503052416 | 43 | 13 | 0.0 | 2.6 | 0.00 | 0.00 | 0.00 | 68 | 1017.5 |
| 20260503051916 | 43 | 5 | 0.9 | 1.7 | 0.00 | 0.00 | 0.00 | 68 | 1017.5 |
| 20260503051419 | 43 | 9 | 0.9 | 1.7 | 0.00 | 0.00 | 0.00 | 69 | 1017.4 |
| 20260503050922 | 42 | 12 | 0.0 | 1.7 | 0.00 | 0.00 | 0.00 | 70 | 1017.4 |
| 20260503050416 | 42 | 12 | 0.0 | 0.9 | 0.00 | 0.00 | 0.00 | 70 | 1017.4 |
| 20260503045919 | 42 | 12 | 0.9 | 0.9 | 0.00 | 0.00 | 0.00 | 71 | 1017.4 |
| 20260503045422 | 42 | 12 | 0.0 | 0.9 | 0.00 | 0.00 | 0.00 | 71 | 1017.4 |
| 20260503044925 | 42 | 12 | 0.0 | 0.9 | 0.00 | 0.00 | 0.00 | 70 | 1017.4 |
| 20260503044419 | 42 | 12 | 0.0 | 0.0 | 0.00 | 0.00 | 0.00 | 69 | 1017.4 |
| 20260503043919 | 42 | 12 | 0.0 | 0.0 | 0.00 | 0.00 | 0.00 | 69 | 1017.4 |
| 20260503043422 | 42 | 12 | 0.0 | 0.0 | 0.00 | 0.00 | 0.00 | 69 | 1017.4 |
| 20260503042916 | 42 | 12 | 0.0 | 0.0 | 0.00 | 0.00 | 0.00 | 69 | 1017.4 |
| 20260503042419 | 42 | 12 | 0.0 | 0.0 | 0.00 | 0.00 | 0.00 | 69 | 1017.3 |
| 20260503041922 | 42 | 12 | 0.0 | 0.0 | 0.00 | 0.00 | 0.00 | 69 | 1017.2 |
| 20260503041419 | 43 | 12 | 0.0 | 0.0 | 0.00 | 0.00 | 0.00 | 69 | 1017.1 |
| 20260503040919 | 43 | 12 | 0.0 | 0.0 | 0.00 | 0.00 | 0.00 | 69 | 1017.0 |
| 20260503040416 | 43 | 12 | 0.0 | 0.0 | 0.00 | 0.00 | 0.00 | 68 | 1017.1 |
| 20260503035922 | 43 | 12 | 0.0 | 0.0 | 0.00 | 0.00 | 0.00 | 68 | 1017.0 |
| 20260503035416 | 43 | 12 | 0.0 | 0.9 | 0.00 | 0.00 | 0.00 | 68 | 1017.0 |
| 20260503034916 | 43 | 12 | 0.0 | 0.0 | 0.00 | 0.00 | 0.00 | 68 | 1017.0 |
| 20260503034419 | 43 | 12 | 0.0 | 0.9 | 0.00 | 0.00 | 0.00 | 68 | 1016.9 |
| 20260503033916 | 43 | 12 | 0.0 | 0.0 | 0.00 | 0.00 | 0.00 | 68 | 1016.9 |
| 20260503033416 | 43 | 12 | 0.0 | 0.9 | 0.00 | 0.00 | 0.00 | 68 | 1016.8 |
| 20260503032916 | 43 | 12 | 0.0 | 0.9 | 0.00 | 0.00 | 0.00 | 68 | 1016.9 |
| 20260503032416 | 43 | 12 | 0.0 | 0.0 | 0.00 | 0.00 | 0.00 | 67 | 1016.9 |
| 20260503031919 | 44 | 12 | 0.0 | 0.0 | 0.00 | 0.00 | 0.00 | 67 | 1016.9 |
| 20260503031419 | 44 | 12 | 0.0 | 0.0 | 0.00 | 0.00 | 0.00 | 66 | 1016.9 |
| 20260503030919 | 44 | 12 | 0.0 | 0.0 | 0.00 | 0.00 | 0.00 | 66 | 1016.7 |
| 20260503030419 | 44 | 12 | 0.0 | 0.0 | 0.00 | 0.00 | 0.00 | 65 | 1016.7 |
| 20260503025919 | 44 | 12 | 0.0 | 0.0 | 0.00 | 0.00 | 0.00 | 64 | 1016.7 |
| 20260503025416 | 45 | 12 | 0.0 | 0.0 | 0.00 | 0.00 | 0.00 | 64 | 1016.7 |
| 20260503024916 | 45 | 12 | 0.0 | 0.0 | 0.00 | 0.00 | 0.00 | 64 | 1016.6 |
| 20260503024419 | 45 | 12 | 0.0 | 0.0 | 0.00 | 0.00 | 0.00 | 64 | 1016.6 |
| 20260503023916 | 45 | 12 | 0.0 | 0.0 | 0.00 | 0.00 | 0.00 | 64 | 1016.5 |
| 20260503023419 | 45 | 12 | 0.0 | 0.0 | 0.00 | 0.00 | 0.00 | 62 | 1016.5 |
| 20260503022919 | 46 | 12 | 0.0 | 0.0 | 0.00 | 0.00 | 0.00 | 62 | 1016.5 |
| 20260503022416 | 46 | 12 | 0.0 | 0.0 | 0.00 | 0.00 | 0.00 | 62 | 1016.4 |
| 20260503021922 | 46 | 12 | 0.0 | 0.0 | 0.00 | 0.00 | 0.00 | 61 | 1016.4 |
| 20260503021416 | 46 | 12 | 0.0 | 0.9 | 0.00 | 0.00 | 0.00 | 61 | 1016.3 |
| 20260503020916 | 46 | 12 | 0.0 | 0.9 | 0.00 | 0.00 | 0.00 | 60 | 1016.2 |
| 20260503020419 | 46 | 12 | 0.0 | 0.9 | 0.00 | 0.00 | 0.00 | 60 | 1016.2 |
| 20260503015916 | 47 | 12 | 0.0 | 0.9 | 0.00 | 0.00 | 0.00 | 59 | 1016.2 |
| 20260503015422 | 47 | 12 | 0.0 | 0.9 | 0.00 | 0.00 | 0.00 | 60 | 1016.2 |
| 20260503014922 | 47 | 12 | 0.0 | 0.9 | 0.00 | 0.00 | 0.00 | 59 | 1016.0 |
| 20260503014416 | 48 | 12 | 0.0 | 0.9 | 0.00 | 0.00 | 0.00 | 58 | 1015.9 |
| 20260503013916 | 48 | 12 | 0.0 | 0.0 | 0.00 | 0.00 | 0.00 | 56 | 1015.9 |
| 20260503013416 | 49 | 12 | 0.0 | 0.0 | 0.00 | 0.00 | 0.00 | 56 | 1015.9 |
| 20260503012922 | 49 | 12 | 0.0 | 0.0 | 0.00 | 0.00 | 0.00 | 55 | 1015.7 |
| 20260503012422 | 50 | 12 | 0.0 | 0.0 | 0.00 | 0.00 | 0.00 | 54 | 1015.6 |
| 20260503011916 | 50 | 12 | 0.0 | 0.0 | 0.00 | 0.00 | 0.00 | 55 | 1015.6 |
| 20260503011416 | 51 | 12 | 0.0 | 0.0 | 0.00 | 0.00 | 0.00 | 51 | 1015.5 |
| 20260503010919 | 51 | 12 | 0.9 | 0.9 | 0.00 | 0.00 | 0.00 | 51 | 1015.6 |
| 20260503010416 | 52 | 12 | 0.0 | 0.9 | 0.00 | 0.00 | 0.00 | 48 | 1015.5 |
| 20260503005916 | 52 | 12 | 0.0 | 1.7 | 0.00 | 0.00 | 0.00 | 47 | 1015.4 |
| 20260503005416 | 52 | 12 | 0.9 | 1.7 | 0.00 | 0.00 | 0.00 | 46 | 1015.4 |
| 20260503004916 | 53 | 12 | 0.9 | 2.6 | 0.00 | 0.00 | 0.00 | 45 | 1015.3 |
| 20260503004416 | 53 | 11 | 0.0 | 1.7 | 0.00 | 0.00 | 0.00 | 45 | 1015.2 |
| 20260503003916 | 53 | 11 | 0.9 | 3.5 | 0.00 | 0.00 | 0.00 | 44 | 1015.2 |
| 20260503003416 | 53 | 11 | 2.6 | 2.6 | 0.00 | 0.00 | 0.00 | 44 | 1015.1 |
| 20260503002919 | 53 | 11 | 0.9 | 2.6 | 0.00 | 0.00 | 0.00 | 43 | 1015.0 |
| 20260503002416 | 54 | 10 | 0.9 | 2.6 | 0.00 | 0.00 | 0.00 | 43 | 1014.9 |
| 20260503001916 | 54 | 13 | 0.9 | 2.6 | 0.00 | 0.00 | 0.00 | 42 | 1014.8 |
| 20260503001419 | 54 | 327 | 1.7 | 7.0 | 0.00 | 0.00 | 0.00 | 42 | 1014.8 |
| 20260503000916 | 54 | 5 | 0.9 | 7.0 | 0.00 | 0.00 | 0.00 | 41 | 1014.7 |
| 20260503000416 | 55 | 344 | 0.9 | 4.3 | 0.00 | 0.00 | 0.00 | 41 | 1014.6 |
| 20260502235919 | 55 | 51 | 3.5 | 5.2 | 0.00 | 0.00 | 0.00 | 40 | 1014.4 |
| 20260502235416 | 55 | 78 | 0.9 | 3.5 | 0.00 | 0.00 | 0.00 | 40 | 1014.3 |
| 20260502234922 | 56 | 336 | 0.9 | 4.3 | 0.00 | 0.00 | 0.00 | 40 | 1014.2 |
| 20260502234416 | 56 | 22 | 0.9 | 7.0 | 0.00 | 0.00 | 0.00 | 39 | 1014.2 |
| 20260502233916 | 56 | 13 | 1.7 | 3.5 | 0.00 | 0.00 | 0.00 | 39 | 1014.2 |
| 20260502233422 | 56 | 79 | 2.6 | 6.1 | 0.00 | 0.00 | 0.00 | 38 | 1014.1 |
| 20260502232925 | 56 | 24 | 0.9 | 3.5 | 0.00 | 0.00 | 0.00 | 39 | 1014.0 |
| 20260502232419 | 56 | 11 | 0.9 | 6.1 | 0.00 | 0.00 | 0.00 | 38 | 1014.0 |
| 20260502231922 | 56 | 5 | 2.6 | 4.3 | 0.00 | 0.00 | 0.00 | 37 | 1014.0 |
| 20260502231416 | 57 | 78 | 0.9 | 8.7 | 0.00 | 0.00 | 0.00 | 37 | 1013.9 |
| 20260502230916 | 57 | 50 | 2.6 | 7.0 | 0.00 | 0.00 | 0.00 | 37 | 1013.9 |
| 20260502230416 | 58 | 311 | 1.7 | 7.8 | 0.00 | 0.00 | 0.00 | 37 | 1013.8 |
| 20260502225916 | 58 | 15 | 2.6 | 3.5 | 0.00 | 0.00 | 0.00 | 36 | 1013.8 |
| 20260502225416 | 58 | 289 | 1.7 | 5.2 | 0.00 | 0.00 | 0.00 | 37 | 1013.7 |
| 20260502224916 | 58 | 36 | 3.5 | 6.1 | 0.00 | 0.00 | 0.00 | 37 | 1013.7 |
| 20260502224419 | 58 | 21 | 3.5 | 5.2 | 0.00 | 0.00 | 0.00 | 36 | 1013.7 |
| 20260502223919 | 58 | 325 | 0.9 | 7.0 | 0.00 | 0.00 | 0.00 | 35 | 1013.6 |
| 20260502223416 | 58 | 326 | 0.9 | 5.2 | 0.00 | 0.00 | 0.00 | 34 | 1013.6 |
| 20260502222919 | 59 | 294 | 0.9 | 7.0 | 0.00 | 0.00 | 0.00 | 34 | 1013.5 |
| 20260502222419 | 59 | 300 | 3.5 | 9.6 | 0.00 | 0.00 | 0.00 | 34 | 1013.4 |
| 20260502221916 | 58 | 283 | 2.6 | 7.0 | 0.00 | 0.00 | 0.00 | 34 | 1013.5 |
| 20260502221416 | 58 | 38 | 6.1 | 8.7 | 0.00 | 0.00 | 0.00 | 34 | 1013.3 |
| 20260502220919 | 58 | 66 | 7.0 | 7.0 | 0.00 | 0.00 | 0.00 | 35 | 1013.1 |
| 20260502215919 | 58 | 310 | 7.8 | 6.1 | 0.00 | 0.00 | 0.00 | 35 | 1013.0 |
| 20260502215416 | 58 | 14 | 1.7 | 7.8 | 0.00 | 0.00 | 0.00 | 34 | 1013.1 |
| 20260502214916 | 58 | 56 | 3.5 | 7.0 | 0.00 | 0.00 | 0.00 | 35 | 1013.1 |
| 20260502214416 | 58 | 57 | 6.1 | 8.7 | 0.00 | 0.00 | 0.00 | 35 | 1013.0 |
| 20260502213919 | 59 | 31 | 2.6 | 7.8 | 0.00 | 0.00 | 0.00 | 36 | 1012.8 |
| 20260502213419 | 59 | 274 | 3.5 | 7.8 | 0.00 | 0.00 | 0.00 | 33 | 1012.8 |
| 20260502212916 | 60 | 24 | 4.3 | 7.0 | 0.00 | 0.00 | 0.00 | 33 | 1012.7 |
| 20260502212416 | 60 | 109 | 0.9 | 8.7 | 0.00 | 0.00 | 0.00 | 34 | 1012.7 |
| 20260502211916 | 60 | 296 | 3.5 | 6.1 | 0.00 | 0.00 | 0.00 | 35 | 1012.4 |
| 20260502211416 | 60 | 355 | 4.3 | 13.0 | 0.00 | 0.00 | 0.00 | 34 | 1012.6 |
| 20260502210919 | 60 | 284 | 1.7 | 11.3 | 0.00 | 0.00 | 0.00 | 35 | 1012.5 |
| 20260502210419 | 59 | 22 | 8.7 | 13.0 | 0.00 | 0.00 | 0.00 | 37 | 1012.4 |
| 20260502205916 | 59 | 296 | 2.6 | 5.2 | 0.00 | 0.00 | 0.00 | 35 | 1012.4 |
| 20260502205416 | 59 | 9 | 0.9 | 7.8 | 0.00 | 0.00 | 0.00 | 35 | 1012.4 |
| 20260502204919 | 59 | 5 | 1.7 | 9.6 | 0.00 | 0.00 | 0.00 | 33 | 1012.5 |
| 20260502204416 | 59 | 269 | 1.7 | 4.3 | 0.00 | 0.00 | 0.00 | 35 | 1012.4 |
| 20260502203925 | 60 | 300 | 2.6 | 8.7 | 0.00 | 0.00 | 0.00 | 32 | 1012.6 |
| 20260502203416 | 60 | 36 | 0.9 | 8.7 | 0.00 | 0.00 | 0.00 | 34 | 1012.4 |
| 20260502202919 | 60 | 313 | 2.6 | 8.7 | 0.00 | 0.00 | 0.00 | 34 | 1012.4 |
| 20260502202416 | 59 | 293 | 2.6 | 8.7 | 0.00 | 0.00 | 0.00 | 35 | 1012.2 |
| 20260502201916 | 58 | 101 | 0.9 | 11.3 | 0.00 | 0.00 | 0.00 | 34 | 1012.3 |
| 20260502201416 | 58 | 5 | 0.9 | 5.2 | 0.00 | 0.00 | 0.00 | 34 | 1012.4 |
| 20260502200916 | 58 | 0 | 0.9 | 7.0 | 0.00 | 0.00 | 0.00 | 34 | 1012.4 |
| 20260502200419 | 59 | 84 | 2.6 | 8.7 | 0.00 | 0.00 | 0.00 | 34 | 1012.4 |
| 20260502195922 | 60 | 227 | 3.5 | 7.0 | 0.00 | 0.00 | 0.00 | 33 | 1012.4 |
| 20260502195416 | 59 | 292 | 2.6 | 7.8 | 0.00 | 0.00 | 0.00 | 35 | 1012.5 |
| 20260502194919 | 58 | 344 | 1.7 | 5.2 | 0.00 | 0.00 | 0.00 | 36 | 1012.6 |
| 20260502194419 | 58 | 25 | 1.7 | 5.2 | 0.00 | 0.00 | 0.00 | 34 | 1012.7 |
| 20260502193916 | 59 | 47 | 2.6 | 8.7 | 0.00 | 0.00 | 0.00 | 34 | 1012.4 |
| 20260502193419 | 60 | 302 | 0.9 | 7.0 | 0.00 | 0.00 | 0.00 | 34 | 1012.7 |
| 20260502192916 | 60 | 5 | 1.7 | 7.8 | 0.00 | 0.00 | 0.00 | 34 | 1012.6 |
| 20260502192416 | 61 | 277 | 4.3 | 9.6 | 0.00 | 0.00 | 0.00 | 33 | 1012.6 |
| 20260502191922 | 61 | 280 | 2.6 | 8.7 | 0.00 | 0.00 | 0.00 | 32 | 1012.7 |
| 20260502191425 | 61 | 355 | 0.9 | 13.0 | 0.00 | 0.00 | 0.00 | 32 | 1012.6 |
| 20260502190916 | 60 | 348 | 5.2 | 7.8 | 0.00 | 0.00 | 0.00 | 34 | 1012.7 |
| 20260502190416 | 60 | 355 | 1.7 | 8.7 | 0.00 | 0.00 | 0.00 | 31 | 1012.8 |
| 20260502185916 | 60 | 27 | 3.5 | 7.8 | 0.00 | 0.00 | 0.00 | 32 | 1012.7 |
| 20260502185416 | 60 | 296 | 0.9 | 7.0 | 0.00 | 0.00 | 0.00 | 32 | 1012.8 |